Time;durP1;ratioP1;P1;durP2;ratioP2;P2;SDS_P1;SDS_P2;PMS_P1;PMS_P2;Temp;Humidity;BMP_temperature;BMP_pressure;BME280_temperature;BME280_humidity;BME280_pressure;Samples;Min_cycle;Max_cycle;Signal;HPM_P1;HPM_P2
2022/04/02 00:00:52;;;;;;;20.10;18.40;;;;;;;-1.06;87.69;96302.33;104590;1294;24265;-87
2022/04/02 00:03:20;;;;;;;21.20;19.50;;;;;;;-1.08;87.57;96304.17;105391;1293;22699;-93
2022/04/02 00:05:49;;;;;;;19.10;17.50;;;;;;;-1.09;87.79;96300.56;104750;1293;25489;-89
2022/04/02 00:08:17;;;;;;;16.20;14.70;;;;;;;-1.09;87.50;96294.80;104427;1293;25379;-88
2022/04/02 00:10:45;;;;;;;17.70;16.20;;;;;;;-1.08;87.65;96298.46;105027;1293;22735;-89
2022/04/02 00:13:15;;;;;;;33.70;30.50;;;;;;;-1.06;87.49;96298.05;104673;1294;22578;-89
2022/04/02 00:15:43;;;;;;;19.00;17.30;;;;;;;-1.04;87.69;96299.36;104310;1294;22809;-90
2022/04/02 00:18:11;;;;;;;18.40;16.80;;;;;;;-1.06;87.54;96295.24;104238;1294;25237;-88
2022/04/02 00:20:39;;;;;;;16.20;14.80;;;;;;;-1.08;87.48;96293.91;104221;1294;25012;-87
2022/04/02 00:25:53;;;;;;;19.50;17.90;;;;;;;-1.07;88.41;96297.72;105057;1293;22507;-93
2022/04/02 00:28:21;;;;;;;17.90;16.30;;;;;;;-0.99;88.13;96298.89;105314;1294;22591;-90
2022/04/02 00:30:49;;;;;;;18.00;16.50;;;;;;;-1.02;87.63;96298.25;104261;1293;706205;-91
2022/04/02 00:33:17;;;;;;;20.90;19.00;;;;;;;-1.03;87.44;96298.05;104566;1293;22699;-90
2022/04/02 00:35:45;;;;;;;19.30;17.80;;;;;;;-0.99;87.42;96297.46;104399;1294;22701;-88
2022/04/02 00:38:13;;;;;;;19.40;17.50;;;;;;;-0.98;87.47;96302.80;104493;1294;24409;-91
2022/04/02 00:40:42;;;;;;;17.40;15.90;;;;;;;-1.00;87.36;96303.98;104381;1293;22569;-90
2022/04/02 00:43:22;;;;;;;18.10;16.60;;;;;;;-1.00;87.50;96304.97;104423;1294;22852;-89
2022/04/02 00:45:53;;;;;;;18.30;16.70;;;;;;;-1.04;87.45;96304.70;105143;1293;22565;-91
2022/04/02 00:48:22;;;;;;;17.60;14.80;;;;;;;-1.07;87.41;96307.02;104629;1294;22713;-91
2022/04/02 00:50:52;;;;;;;17.80;16.20;;;;;;;-1.06;87.35;96313.22;104529;1293;22591;-89
2022/04/02 00:53:21;;;;;;;17.50;15.90;;;;;;;-1.09;87.37;96310.14;104580;1294;23356;-90
2022/04/02 00:55:49;;;;;;;17.10;15.60;;;;;;;-1.12;87.46;96313.62;104430;1293;25416;-90
2022/04/02 00:58:17;;;;;;;17.30;15.60;;;;;;;-1.16;87.48;96318.17;104638;1294;22660;-91
2022/04/02 01:00:46;;;;;;;18.80;17.20;;;;;;;-1.13;87.47;96316.73;104615;1294;22770;-90
2022/04/02 01:03:17;;;;;;;17.70;16.10;;;;;;;-1.13;87.34;96316.53;104714;1293;22615;-88
2022/04/02 01:05:49;;;;;;;18.40;16.70;;;;;;;-1.13;87.55;96316.42;104611;1294;22542;-90
2022/04/02 01:08:18;;;;;;;17.60;16.00;;;;;;;-1.16;87.52;96318.86;104663;1294;22684;-87
2022/04/02 01:10:48;;;;;;;16.50;15.00;;;;;;;-1.17;87.50;96317.63;105253;1293;22570;-88
2022/04/02 01:13:16;;;;;;;17.70;16.10;;;;;;;-1.16;87.42;96318.27;105179;1294;22588;-90
2022/04/02 01:15:45;;;;;;;31.00;28.20;;;;;;;-1.15;87.46;96321.61;105306;1293;25505;-89
2022/04/02 01:18:18;;;;;;;21.40;19.30;;;;;;;-1.16;87.47;96321.71;105312;1293;22581;-88
2022/04/02 01:20:49;;;;;;;21.00;19.20;;;;;;;-1.17;87.50;96322.09;105050;1293;25434;-90
2022/04/02 01:23:18;;;;;;;19.10;17.40;;;;;;;-1.20;87.44;96318.69;105527;1294;22582;-88
2022/04/02 01:25:45;;;;;;;20.70;18.90;;;;;;;-1.16;87.40;96326.73;107020;1293;22574;-83
2022/04/02 01:28:23;;;;;;;21.20;19.20;;;;;;;-1.17;87.25;96327.73;105891;1293;24185;-90
2022/04/02 01:30:53;;;;;;;21.80;19.80;;;;;;;-1.17;87.44;96327.16;105639;1294;22983;-90
2022/04/02 01:33:23;;;;;;;22.20;20.20;;;;;;;-1.18;87.26;96327.52;105777;1294;22573;-91
2022/04/02 01:36:04;;;;;;;20.00;18.10;;;;;;;-1.19;87.48;96324.92;105336;1293;22694;-90
2022/04/02 01:38:41;;;;;;;17.90;16.30;;;;;;;-1.15;87.47;96329.54;104994;1294;24339;-88
2022/04/02 01:41:10;;;;;;;20.00;18.10;;;;;;;-1.17;87.64;96328.73;105186;1293;27713;-90
2022/04/02 01:43:43;;;;;;;19.40;17.70;;;;;;;-1.19;87.52;96327.30;104954;1294;22565;-91
2022/04/02 01:46:12;;;;;;;18.80;17.20;;;;;;;-1.22;87.71;96328.46;104774;1294;22717;-88
2022/04/02 01:48:40;;;;;;;20.50;18.60;;;;;;;-1.22;87.49;96325.14;104503;1294;24381;-88
2022/04/02 01:51:09;;;;;;;21.20;19.20;;;;;;;-1.21;87.53;96326.40;104278;1294;22664;-89
2022/04/02 01:53:37;;;;;;;21.10;19.10;;;;;;;-1.22;87.56;96332.79;104215;1294;22595;-90
2022/04/02 01:56:09;;;;;;;19.00;17.30;;;;;;;-1.24;87.57;96338.66;104435;1294;22636;-87
2022/04/02 01:58:44;;;;;;;17.60;16.00;;;;;;;-1.27;87.61;96337.92;104093;1294;25470;-89
2022/04/02 02:01:16;;;;;;;17.00;15.40;;;;;;;-1.25;87.41;96341.30;104235;1293;22659;-88
2022/04/02 02:03:44;;;;;;;18.00;16.30;;;;;;;-1.22;87.47;96344.23;104493;1293;22611;-89
2022/04/02 02:06:12;;;;;;;18.90;17.10;;;;;;;-1.24;87.52;96343.05;104430;1294;24831;-87
2022/04/02 02:08:45;;;;;;;19.30;17.60;;;;;;;-1.24;87.55;96343.46;104372;1294;22583;-88
2022/04/02 02:11:22;;;;;;;21.30;19.20;;;;;;;-1.24;87.50;96340.61;104193;1294;22707;-89
2022/04/02 02:14:03;;;;;;;18.00;16.40;;;;;;;-1.21;87.59;96341.63;104015;1293;22637;-89
2022/04/02 02:16:32;;;;;;;16.70;15.30;;;;;;;-1.16;87.24;96346.34;104591;1294;22622;-88
2022/04/02 02:19:00;;;;;;;17.30;15.70;;;;;;;-1.17;87.48;96347.34;104686;1293;23297;-89
2022/04/02 02:21:28;;;;;;;19.60;17.90;;;;;;;-1.21;87.44;96351.40;104857;1294;24416;-87
2022/04/02 02:23:56;;;;;;;18.60;17.00;;;;;;;-1.25;87.43;96352.14;104330;1294;22728;-90
2022/04/02 02:26:25;;;;;;;16.40;15.00;;;;;;;-1.27;87.39;96351.82;104777;1293;25948;-91
2022/04/02 02:28:53;;;;;;;16.70;15.20;;;;;;;-1.25;87.52;96355.58;104797;1293;22594;-92
2022/04/02 02:31:27;;;;;;;20.30;18.50;;;;;;;-1.28;87.45;96352.66;105127;1293;22561;-89
2022/04/02 02:36:48;;;;;;;16.10;14.60;;;;;;;-1.33;87.57;96346.77;105313;1293;22728;-87
2022/04/02 02:39:17;;;;;;;16.80;15.40;;;;;;;-1.31;87.50;96346.36;105701;1293;22705;-92
2022/04/02 02:41:50;;;;;;;20.70;19.00;;;;;;;-1.29;87.55;96341.83;105285;1294;24369;-93
2022/04/02 02:44:28;;;;;;;18.30;16.80;;;;;;;-1.28;87.56;96346.36;105250;1294;22702;-87
2022/04/02 02:47:08;;;;;;;16.80;15.30;;;;;;;-1.28;87.68;96347.75;105489;1293;23663;-87
2022/04/02 02:49:37;;;;;;;16.70;15.10;;;;;;;-1.27;87.54;96348.85;105435;1293;22576;-88
2022/04/02 02:52:09;;;;;;;17.80;16.10;;;;;;;-1.23;87.44;96348.45;106232;1294;25525;-90
2022/04/02 02:54:37;;;;;;;17.80;16.20;;;;;;;-1.23;87.61;96347.34;105938;1294;22579;-89
2022/04/02 02:57:05;;;;;;;17.60;16.20;;;;;;;-1.23;87.47;96349.66;105930;1294;22548;-86
2022/04/02 02:59:34;;;;;;;16.60;15.20;;;;;;;-1.26;87.63;96352.45;106937;1293;23340;-85
2022/04/02 03:02:03;;;;;;;15.60;14.20;;;;;;;-1.27;87.42;96353.24;107439;1292;22565;-84
2022/04/02 03:04:33;;;;;;;17.40;15.80;;;;;;;-1.25;87.66;96354.04;107515;1293;22581;-87
2022/04/02 03:07:10;;;;;;;16.40;14.70;;;;;;;-1.26;87.70;96354.25;107797;1293;22708;-88
2022/04/02 03:09:40;;;;;;;17.80;16.00;;;;;;;-1.26;87.65;96355.52;107166;1293;22678;-81
2022/04/02 03:12:11;;;;;;;15.70;14.20;;;;;;;-1.24;87.63;96353.88;107390;1293;22842;-82
2022/04/02 03:15:31;;;;;;;16.80;15.10;;;;;;;-1.22;87.52;96356.11;107646;1292;23219;-90
2022/04/02 03:18:04;;;;;;;16.50;15.00;;;;;;;-1.17;87.65;96356.23;106554;1293;22933;-90
2022/04/02 03:20:36;;;;;;;17.20;15.80;;;;;;;-1.17;87.53;96357.02;106100;1293;22573;-91
2022/04/02 03:23:05;;;;;;;17.10;15.40;;;;;;;-1.18;87.48;96359.29;104900;1293;22613;-89
2022/04/02 03:25:34;;;;;;;16.50;14.80;;;;;;;-1.18;87.45;96357.34;104943;1293;22588;-91
2022/04/02 03:28:04;;;;;;;15.70;14.40;;;;;;;-1.18;87.43;96358.19;104976;1293;22645;-89
2022/04/02 03:30:33;;;;;;;18.00;16.50;;;;;;;-1.16;87.54;96356.54;104969;1293;23854;-90
2022/04/02 03:33:01;;;;;;;16.30;14.90;;;;;;;-1.15;87.46;96356.33;105450;1293;22555;-91
2022/04/02 03:35:30;;;;;;;15.60;14.40;;;;;;;-1.18;87.62;96354.69;106151;1294;22565;-91
2022/04/02 03:37:59;;;;;;;15.70;14.40;;;;;;;-1.21;87.69;96354.15;106058;1293;23064;-89
2022/04/02 03:40:27;;;;;;;14.80;13.60;;;;;;;-1.21;87.61;96356.78;105522;1293;25522;-88
2022/04/02 03:42:57;;;;;;;13.50;12.20;;;;;;;-1.22;87.50;96355.67;105192;1293;22644;-92
2022/04/02 03:45:37;;;;;;;15.20;14.00;;;;;;;-1.22;87.71;96360.59;107161;1281;22519;-85
2022/04/02 03:48:11;;;;;;;15.70;14.40;;;;;;;-1.24;87.43;96364.30;107322;1278;22955;31
2022/04/02 03:50:41;;;;;;;14.40;13.20;;;;;;;-1.26;87.61;96365.98;106295;1281;22584;-92
2022/04/02 03:53:23;;;;;;;15.20;13.90;;;;;;;-1.26;87.66;96368.47;107332;1281;22572;-86
2022/04/02 03:55:58;;;;;;;15.80;14.50;;;;;;;-1.22;87.58;96371.96;107534;1289;22614;-88
2022/04/02 03:58:34;;;;;;;16.80;15.40;;;;;;;-1.21;87.45;96365.15;107221;1290;22617;-83
2022/04/02 04:01:02;;;;;;;19.00;17.40;;;;;;;-1.16;87.50;96372.40;107302;1281;22562;-89
2022/04/02 04:03:32;;;;;;;19.00;17.30;;;;;;;-1.15;87.54;96377.16;106082;1290;22808;-90
2022/04/02 04:06:01;;;;;;;17.40;15.90;;;;;;;-1.15;87.56;96376.20;106679;1290;22586;-93
2022/04/02 04:08:30;;;;;;;15.50;14.00;;;;;;;-1.14;87.50;96382.23;106964;1290;22655;-86
2022/04/02 04:11:04;;;;;;;17.80;16.10;;;;;;;-1.15;87.36;96379.34;107861;1278;22917;31
2022/04/02 04:13:33;;;;;;;18.10;16.70;;;;;;;-1.13;87.51;96385.52;107995;1280;23896;-86
2022/04/02 04:16:03;;;;;;;16.20;14.80;;;;;;;-1.14;87.58;96387.95;107800;1280;22952;-86
2022/04/02 04:18:38;;;;;;;16.30;15.00;;;;;;;-1.16;87.41;96386.67;108052;1280;22563;-82
2022/04/02 04:21:06;;;;;;;15.70;14.40;;;;;;;-1.15;87.31;96389.42;107101;1290;22847;-82
2022/04/02 04:23:35;;;;;;;15.80;14.60;;;;;;;-1.12;87.38;96394.34;107231;1291;22596;-90
2022/04/02 04:26:05;;;;;;;16.20;14.80;;;;;;;-1.14;87.57;96396.89;106098;1291;25390;-92
2022/04/02 04:28:40;;;;;;;18.00;16.40;;;;;;;-1.17;87.54;96402.70;106086;1290;22583;-90
2022/04/02 04:31:10;;;;;;;17.90;16.50;;;;;;;-1.18;87.43;96400.05;105036;1291;22550;-90
2022/04/02 04:33:38;;;;;;;18.00;16.40;;;;;;;-1.16;87.53;96397.56;105097;1290;24213;-90
2022/04/02 04:36:06;;;;;;;23.30;21.10;;;;;;;-1.12;87.51;96397.74;105408;1291;22574;-90
2022/04/02 04:38:38;;;;;;;17.00;15.70;;;;;;;-1.09;87.38;96402.12;105628;1290;22676;-90
2022/04/02 04:41:13;;;;;;;17.40;16.00;;;;;;;-1.13;87.40;96400.17;105531;1291;22775;-87
2022/04/02 04:43:48;;;;;;;17.50;15.90;;;;;;;-1.18;87.58;96399.77;105422;1290;22600;-89
2022/04/02 04:46:19;;;;;;;17.70;16.30;;;;;;;-1.23;87.59;96397.12;105746;1290;25346;-89
2022/04/02 04:48:53;;;;;;;;;;;;;;;-1.22;87.72;96402.25;106929;1290;22948;-86
2022/04/02 04:51:23;;;;;;;16.80;15.40;;;;;;;-1.21;87.46;96401.61;107158;1293;22725;-91
2022/04/02 04:53:55;;;;;;;16.90;15.30;;;;;;;-1.21;87.48;96401.41;106329;1291;22764;-92
2022/04/02 04:56:23;;;;;;;19.30;17.80;;;;;;;-1.24;87.48;96405.95;105918;1291;22559;-91
2022/04/02 04:58:51;;;;;;;16.00;14.70;;;;;;;-1.30;87.61;96407.45;106467;1291;24243;-91
2022/04/02 05:01:25;;;;;;;16.90;15.50;;;;;;;-1.33;87.72;96406.55;105881;1291;25291;-92
2022/04/02 05:03:53;;;;;;;15.70;14.30;;;;;;;-1.32;87.77;96407.07;105647;1291;26677;-92
2022/04/02 05:06:21;;;;;;;16.40;15.10;;;;;;;-1.33;87.68;96414.69;105622;1292;22678;-90
2022/04/02 05:08:54;;;;;;;15.20;14.10;;;;;;;-1.35;87.57;96413.95;106008;1291;22565;-89
2022/04/02 05:11:27;;;;;;;14.90;13.70;;;;;;;-1.35;87.76;96418.39;105408;1291;22570;-88
2022/04/02 05:13:56;;;;;;;16.60;15.30;;;;;;;-1.35;87.77;96418.63;105550;1291;22575;-88
2022/04/02 05:16:26;;;;;;;18.00;16.60;;;;;;;-1.36;87.86;96418.70;105007;1291;22576;-90
2022/04/02 05:18:56;;;;;;;17.30;16.00;;;;;;;-1.38;87.60;96421.43;105300;1291;22523;-91
2022/04/02 05:21:26;;;;;;;20.50;18.80;;;;;;;-1.41;87.77;96419.38;105090;1291;25250;-89
2022/04/02 05:23:54;;;;;;;18.30;16.60;;;;;;;-1.40;87.73;96419.58;104896;1293;22825;-90
2022/04/02 05:26:22;;;;;;;17.40;16.00;;;;;;;-1.38;87.63;96416.31;105402;1291;22667;-92
2022/04/02 05:29:26;;;;;;;19.30;17.70;;;;;;;-1.34;87.69;96416.70;106479;1290;25429;-90
2022/04/02 05:31:55;;;;;;;19.50;17.90;;;;;;;-1.33;87.71;96419.02;106653;1290;22504;-91
2022/04/02 05:34:23;;;;;;;18.30;16.90;;;;;;;-1.35;87.78;96418.21;106512;1290;23151;-90
2022/04/02 05:36:51;;;;;;;18.30;16.60;;;;;;;-1.37;87.76;96420.22;106521;1290;25434;-91
2022/04/02 05:39:19;;;;;;;16.90;15.60;;;;;;;-1.37;87.82;96426.45;105617;1290;25687;-91
2022/04/02 05:41:54;;;;;;;18.20;16.50;;;;;;;-1.34;87.64;96431.17;105936;1290;22707;-90
2022/04/02 05:44:23;;;;;;;21.60;19.80;;;;;;;-1.35;87.68;96433.82;105609;1290;22566;-89
2022/04/02 05:46:50;;;;;;;18.90;17.20;;;;;;;-1.38;87.76;96434.13;105242;1291;23926;-92
2022/04/02 05:49:38;;;;;;;17.00;15.60;;;;;;;-1.37;87.74;96437.19;105443;1291;22575;-91
2022/04/02 05:52:07;;;;;;;16.20;14.80;;;;;;;-1.34;87.88;96436.20;105096;1291;22710;-86
2022/04/02 05:54:35;;;;;;;18.60;17.10;;;;;;;-1.30;87.80;96440.07;105062;1291;22879;-89
2022/04/02 05:57:04;;;;;;;19.30;17.80;;;;;;;-1.29;87.80;96436.58;105027;1291;22747;-87
2022/04/02 05:59:33;;;;;;;21.20;19.50;;;;;;;-1.28;87.77;96438.11;104852;1294;22638;-88
2022/04/02 06:02:01;;;;;;;18.20;16.70;;;;;;;-1.28;87.67;96441.18;104906;1291;22705;-89
2022/04/02 06:04:29;;;;;;;17.60;16.10;;;;;;;-1.27;87.68;96443.09;105758;1291;22629;-86
2022/04/02 06:06:56;;;;;;;18.90;17.30;;;;;;;-1.25;87.55;96442.14;105613;1291;25432;-90
2022/04/02 06:09:24;;;;;;;21.40;19.50;;;;;;;-1.26;87.62;96441.84;105195;1291;24219;-90
2022/04/02 06:11:52;;;;;;;18.70;17.20;;;;;;;-1.26;87.68;96443.21;105162;1291;22721;-88
2022/04/02 06:14:20;;;;;;;19.00;17.30;;;;;;;-1.26;87.81;96443.25;105958;1291;22569;-88
2022/04/02 06:16:48;;;;;;;18.00;16.40;;;;;;;-1.21;87.70;96446.17;106140;1291;22596;-86
2022/04/02 06:19:17;;;;;;;21.60;19.80;;;;;;;-1.17;87.58;96450.70;106186;1291;23102;-88
2022/04/02 06:21:45;;;;;;;20.60;18.90;;;;;;;-1.13;87.76;96455.98;105643;1293;25387;-88
2022/04/02 06:24:13;;;;;;;21.30;19.50;;;;;;;-1.16;87.56;96456.41;106176;1290;23152;-86
2022/04/02 06:26:41;;;;;;;19.30;17.70;;;;;;;-1.18;87.50;96458.45;106042;1291;22646;-87
2022/04/02 06:29:09;;;;;;;24.20;22.10;;;;;;;-1.17;87.72;96461.69;105198;1291;22696;-89
2022/04/02 06:31:39;;;;;;;17.50;16.00;;;;;;;-1.13;87.70;96464.92;107402;1291;22668;-87
2022/04/02 06:34:11;;;;;;;19.00;17.40;;;;;;;-1.10;87.40;96462.23;104940;1291;22801;-87
2022/04/02 06:36:39;;;;;;;18.60;17.00;;;;;;;-1.10;87.47;96466.78;104784;1291;24528;-93
2022/04/02 06:39:07;;;;;;;19.10;17.50;;;;;;;-1.08;87.64;96464.89;106332;1291;22316;-89
2022/04/02 06:41:35;;;;;;;16.70;15.40;;;;;;;-1.07;87.42;96465.27;105689;1291;22877;-92
2022/04/02 06:44:03;;;;;;;18.00;16.50;;;;;;;-1.12;87.47;96466.98;105278;1291;22589;-88
2022/04/02 06:46:31;;;;;;;19.20;17.60;;;;;;;-1.11;87.38;96469.79;104601;1291;25384;-88
2022/04/02 06:48:58;;;;;;;18.50;17.10;;;;;;;-1.14;87.18;96472.59;104318;1291;25540;-88
2022/04/02 06:51:26;;;;;;;23.90;22.00;;;;;;;-1.17;87.49;96467.66;104627;1291;23536;-88
2022/04/02 06:53:54;;;;;;;18.80;17.20;;;;;;;-1.11;87.36;96471.59;105094;1291;22570;-88
2022/04/02 06:56:22;;;;;;;18.50;16.80;;;;;;;-1.04;87.59;96467.77;104749;1291;22576;-89
2022/04/02 06:58:50;;;;;;;21.80;19.90;;;;;;;-1.00;87.39;96472.02;104800;1292;22652;-89
2022/04/02 07:01:18;;;;;;;20.20;18.60;;;;;;;-0.98;87.46;96471.80;104747;1291;25386;-88
2022/04/02 07:03:46;;;;;;;23.40;21.30;;;;;;;-0.97;87.53;96472.34;104844;1291;25949;-89
2022/04/02 07:06:14;;;;;;;16.50;15.10;;;;;;;-0.94;87.35;96476.46;104598;1291;24496;-89
2022/04/02 07:08:42;;;;;;;15.60;14.40;;;;;;;-0.94;87.13;96478.63;104678;1292;22811;-89
2022/04/02 07:11:10;;;;;;;19.00;17.50;;;;;;;-0.97;87.11;96482.64;104759;1294;24398;-89
2022/04/02 07:13:38;;;;;;;20.30;18.70;;;;;;;-1.07;86.93;96483.81;104835;1291;24413;-87
2022/04/02 07:16:06;;;;;;;18.60;16.90;;;;;;;-1.12;86.91;96487.91;104506;1293;25364;-90
2022/04/02 07:18:36;;;;;;;17.50;16.00;;;;;;;-1.17;87.10;96485.52;104517;1291;25369;-89
2022/04/02 07:21:05;;;;;;;19.00;17.30;;;;;;;-1.18;87.18;96489.11;105308;1291;22564;-90
2022/04/02 07:23:35;;;;;;;21.30;19.60;;;;;;;-1.17;86.94;96491.98;105356;1291;22722;-92
2022/04/02 07:26:03;;;;;;;21.40;19.70;;;;;;;-1.21;87.06;96495.85;106435;1291;22619;-90
2022/04/02 07:28:33;;;;;;;18.80;17.30;;;;;;;-1.19;87.16;96497.73;105910;1293;25376;-91
2022/04/02 07:31:01;;;;;;;17.60;16.10;;;;;;;-1.14;87.05;96499.91;105846;1291;22758;-92
2022/04/02 07:33:30;;;;;;;17.00;15.60;;;;;;;-1.11;86.95;96503.15;105240;1291;22649;-91
2022/04/02 07:36:09;;;;;;;19.90;18.30;;;;;;;-1.11;86.79;96499.29;105806;1291;24246;-90
2022/04/02 07:39:00;;;;;;;18.10;16.30;;;;;;;-1.16;86.56;96511.44;105332;1291;22610;-91
2022/04/02 07:41:42;;;;;;;17.00;15.50;;;;;;;-1.21;86.71;96515.79;104902;1291;22578;-87
2022/04/02 07:44:58;;;;;;;18.10;16.50;;;;;;;-1.21;86.78;96512.56;105111;1291;23161;-91
2022/04/02 07:47:32;;;;;;;20.20;18.60;;;;;;;-1.19;86.80;96512.95;104829;1297;25567;-91
2022/04/02 07:50:03;;;;;;;18.40;17.00;;;;;;;-1.20;86.79;96511.57;104688;1297;25873;-90
2022/04/02 07:52:32;;;;;;;19.10;17.50;;;;;;;-1.22;86.85;96512.30;104680;1297;22545;-90
2022/04/02 07:55:07;;;;;;;18.30;16.90;;;;;;;-1.17;86.76;96517.71;105518;1297;22620;-89
2022/04/02 07:57:43;;;;;;;21.30;19.60;;;;;;;-1.17;86.68;96519.56;106442;1297;22691;-91
2022/04/02 08:00:21;;;;;;;25.90;23.50;;;;;;;-1.15;86.64;96517.61;105933;1297;22534;-88
2022/04/02 08:02:50;;;;;;;20.10;18.50;;;;;;;-1.13;86.68;96520.84;105011;1297;22574;-92
2022/04/02 08:05:23;;;;;;;18.70;17.30;;;;;;;-1.11;86.61;96525.67;105538;1297;22886;-91
2022/04/02 08:08:01;;;;;;;18.70;16.90;;;;;;;-1.09;86.32;96526.84;105246;1297;24329;-86
2022/04/02 08:10:37;;;;;;;18.40;16.80;;;;;;;-1.09;86.32;96531.71;104975;1297;26050;-88
2022/04/02 08:13:12;;;;;;;19.70;18.20;;;;;;;-1.10;86.47;96533.66;106758;1297;22822;-84
2022/04/02 08:15:42;;;;;;;21.30;19.50;;;;;;;-1.07;86.50;96533.31;105483;1297;24239;-91
2022/04/02 08:18:17;;;;;;;18.10;16.50;;;;;;;-1.04;86.26;96539.86;105267;1297;26582;-88
2022/04/02 08:20:45;;;;;;;17.90;16.50;;;;;;;-1.05;86.23;96541.25;104236;1297;23470;-90
2022/04/02 08:23:13;;;;;;;19.30;17.70;;;;;;;-1.05;86.13;96547.27;105049;1293;22678;-90
2022/04/02 08:25:50;;;;;;;19.60;18.00;;;;;;;-1.07;86.05;96551.60;105391;1291;22796;-89
2022/04/02 08:28:54;;;;;;;18.10;16.70;;;;;;;-1.14;85.87;96553.98;105630;1291;23450;-92
2022/04/02 08:31:44;;;;;;;16.90;15.50;;;;;;;-1.16;86.20;96554.24;105091;1294;22499;-88
2022/04/02 08:34:45;;;;;;;18.30;16.80;;;;;;;-1.19;85.82;96557.09;104857;1291;22573;-90
2022/04/02 08:37:25;;;;;;;22.10;20.30;;;;;;;-1.18;85.99;96556.67;104904;1291;24223;-89
2022/04/02 08:40:06;;;;;;;20.20;18.50;;;;;;;-1.16;86.10;96557.90;104772;1294;22572;-91
2022/04/02 08:42:52;;;;;;;18.70;16.90;;;;;;;-1.14;85.82;96563.55;105024;1293;22577;-93
2022/04/02 08:45:29;;;;;;;18.90;17.40;;;;;;;-1.12;85.84;96563.20;105165;1291;22679;-90
2022/04/02 08:48:03;;;;;;;21.20;19.50;;;;;;;-1.09;86.01;96563.10;105139;1291;25404;-89
2022/04/02 08:50:36;;;;;;;20.20;18.60;;;;;;;-1.11;85.81;96561.52;105519;1291;22725;-93
2022/04/02 08:53:25;;;;;;;21.10;19.40;;;;;;;-1.09;85.77;96566.02;106170;1291;22616;-92
2022/04/02 08:56:06;;;;;;;20.60;18.80;;;;;;;-1.05;85.77;96566.10;104596;1291;22614;-86
2022/04/02 08:58:58;;;;;;;21.70;19.90;;;;;;;-1.03;85.70;96568.70;104424;1291;22882;-86
2022/04/02 09:02:03;;;;;;;20.30;18.70;;;;;;;-1.03;85.78;96571.77;104574;1291;22716;-87
2022/04/02 09:05:17;;;;;;;18.30;16.80;;;;;;;-1.02;85.54;96569.91;104366;1294;26624;-87
2022/04/02 09:08:06;;;;;;;17.20;15.80;;;;;;;-1.00;85.37;96578.75;104714;1293;22735;-88
2022/04/02 09:10:53;;;;;;;19.90;18.40;;;;;;;-1.08;84.82;96577.87;105075;1291;25389;-89
2022/04/02 09:14:04;;;;;;;17.90;16.30;;;;;;;-1.09;85.39;96581.61;106984;1290;22671;-87
2022/04/02 09:17:00;;;;;;;17.50;16.00;;;;;;;-1.02;85.25;96581.98;107209;1294;22587;-85
2022/04/02 09:19:52;;;;;;;19.90;18.20;;;;;;;-0.96;85.13;96583.65;107625;1291;22579;-84
2022/04/02 09:22:33;;;;;;;24.70;22.70;;;;;;;-0.94;85.05;96585.03;107046;1291;22912;-87
2022/04/02 09:25:18;;;;;;;22.20;20.50;;;;;;;-0.98;84.81;96588.66;106125;1293;22496;-86
2022/04/02 09:28:08;;;;;;;26.70;24.50;;;;;;;-0.98;85.05;96587.66;106773;1291;25325;-87
2022/04/02 09:31:10;;;;;;;29.30;26.50;;;;;;;-0.89;85.29;96591.51;106912;1291;22612;-87
2022/04/02 09:33:41;;;;;;;27.10;24.80;;;;;;;-0.79;85.14;96598.33;104979;1297;23202;-88
2022/04/02 09:36:38;;;;;;;25.70;23.70;;;;;;;-0.81;84.84;96598.80;104299;1297;25388;-86
2022/04/02 09:39:57;;;;;;;22.80;21.00;;;;;;;-0.90;84.72;96596.79;103925;1297;22581;-85
2022/04/02 09:42:42;;;;;;;23.30;21.40;;;;;;;-0.94;84.72;96603.90;104014;1297;23060;-87
2022/04/02 09:45:12;;;;;;;;;;;;;;;-0.98;84.74;96603.05;104100;1297;24322;-86
2022/04/02 09:47:49;;;;;;;28.70;26.30;;;;;;;-0.99;85.09;96607.48;104104;1297;22608;-88
2022/04/02 09:50:22;;;;;;;27.60;25.20;;;;;;;-0.96;85.12;96608.50;104714;1297;24483;-85
2022/04/02 09:52:58;;;;;;;26.40;24.20;;;;;;;-0.89;84.99;96612.28;104467;1297;24253;-90
2022/04/02 09:55:51;;;;;;;30.60;28.10;;;;;;;-0.89;84.72;96613.23;105548;1297;22623;-88
2022/04/02 09:58:39;;;;;;;30.50;28.20;;;;;;;-1.01;84.51;96616.08;103793;1298;22895;-85
2022/04/02 10:01:09;;;;;;;25.80;23.80;;;;;;;-1.13;84.52;96615.69;104203;1297;22891;-81
2022/04/02 10:03:59;;;;;;;28.40;26.30;;;;;;;-1.16;84.89;96615.41;104582;1297;25338;-79
2022/04/02 10:06:31;;;;;;;28.40;26.30;;;;;;;-1.18;84.76;96615.39;104371;1297;22714;-82
2022/04/02 10:09:06;;;;;;;27.70;25.60;;;;;;;-1.21;84.61;96619.55;104450;1297;23170;-82
2022/04/02 10:11:52;;;;;;;27.10;25.00;;;;;;;-1.28;84.85;96621.15;104750;1291;22718;-82
2022/04/02 10:14:23;;;;;;;26.10;23.90;;;;;;;-1.35;84.98;96623.22;105714;1291;24425;-87
2022/04/02 10:16:55;;;;;;;25.40;23.50;;;;;;;-1.25;85.51;96627.30;105096;1291;22723;-88
2022/04/02 10:19:26;;;;;;;28.40;26.00;;;;;;;-1.27;84.96;96628.40;104730;1291;22569;-89
2022/04/02 10:22:03;;;;;;;28.20;26.00;;;;;;;-1.28;85.01;96626.85;105378;1291;22668;-86
2022/04/02 10:24:37;;;;;;;26.00;24.00;;;;;;;-1.31;84.93;96625.79;105120;1291;22713;-90
2022/04/02 10:27:07;;;;;;;;;;;;;;;-1.30;85.11;96635.30;105459;1291;22663;-90
2022/04/02 10:29:54;;;;;;;29.10;26.80;;;;;;;-1.34;84.82;96631.78;105512;1291;25005;-87
2022/04/02 10:32:54;;;;;;;28.40;26.20;;;;;;;-1.33;85.03;96634.84;105476;1291;22608;-88
2022/04/02 10:35:24;;;;;;;26.20;24.10;;;;;;;-1.34;85.09;96636.05;105902;1291;23786;-82
2022/04/02 10:38:19;;;;;;;25.90;23.90;;;;;;;-1.35;85.03;96635.10;106697;1290;22567;-89
2022/04/02 10:40:52;;;;;;;27.40;25.30;;;;;;;-1.40;84.82;96633.38;106005;1291;22589;-87
2022/04/02 10:43:29;;;;;;;27.00;24.90;;;;;;;-1.40;85.08;96630.36;105172;1291;22712;-90
2022/04/02 10:46:00;;;;;;;24.60;22.70;;;;;;;-1.35;84.98;96630.88;105616;1291;22567;-87
2022/04/02 10:48:41;;;;;;;29.60;27.20;;;;;;;-1.28;85.03;96635.95;105764;1291;24454;-89
2022/04/02 10:51:13;;;;;;;32.20;29.80;;;;;;;-1.28;84.90;96637.21;105012;1291;25381;-90
2022/04/02 10:53:44;;;;;;;35.00;32.40;;;;;;;-1.31;85.01;96637.41;104936;1291;22659;-83
2022/04/02 10:56:16;;;;;;;32.50;29.80;;;;;;;-1.37;85.08;96640.90;105105;1291;22693;-82
2022/04/02 10:58:53;;;;;;;31.70;29.00;;;;;;;-1.42;85.24;96644.79;104952;1291;22693;-84
2022/04/02 11:01:23;;;;;;;34.70;32.00;;;;;;;-1.44;85.33;96642.86;105010;1291;24001;-87
2022/04/02 11:03:55;;;;;;;37.50;34.60;;;;;;;-1.43;85.44;96648.67;104966;1291;22644;-85
2022/04/02 11:06:43;;;;;;;31.70;28.80;;;;;;;-1.40;85.40;96640.98;104572;1291;24271;-86
2022/04/02 11:09:29;;;;;;;30.90;28.40;;;;;;;-1.31;85.57;96649.93;105845;1291;25384;-88
2022/04/02 11:12:03;;;;;;;32.60;30.10;;;;;;;-1.27;85.30;96653.33;105749;1291;22667;-88
2022/04/02 11:14:44;;;;;;;34.00;31.40;;;;;;;-1.34;85.09;96657.83;105109;1291;25578;-86
2022/04/02 11:17:28;;;;;;;31.90;29.50;;;;;;;-1.40;85.03;96659.74;105132;1290;22601;-84
2022/04/02 11:20:13;;;;;;;29.60;26.90;;;;;;;-1.45;85.11;96657.06;104607;1291;22823;-84
2022/04/02 11:22:52;;;;;;;32.40;29.90;;;;;;;-1.42;85.10;96659.21;105039;1291;22644;-85
2022/04/02 11:25:23;;;;;;;34.90;32.20;;;;;;;-1.43;85.12;96666.89;104733;1291;22814;-85
2022/04/02 11:27:58;;;;;;;29.40;27.10;;;;;;;-1.46;85.12;96665.25;104865;1291;25541;-85
2022/04/02 11:30:29;;;;;;;30.10;27.80;;;;;;;-1.43;85.25;96663.79;104727;1291;22822;-84
2022/04/02 11:33:02;;;;;;;34.30;31.50;;;;;;;-1.38;85.24;96664.25;104478;1291;25434;-84
2022/04/02 11:35:35;;;;;;;35.30;32.50;;;;;;;-1.30;85.30;96669.80;104952;1291;22671;-86
2022/04/02 11:38:23;;;;;;;29.20;26.60;;;;;;;-1.29;84.92;96665.43;104946;1291;22793;-84
2022/04/02 11:41:02;;;;;;;28.40;25.90;;;;;;;-1.26;85.06;96673.02;104847;1291;24329;-83
2022/04/02 11:43:41;;;;;;;30.10;27.60;;;;;;;-1.23;84.75;96668.81;104802;1291;25388;-84
2022/04/02 11:46:12;;;;;;;32.10;29.60;;;;;;;-1.25;84.71;96677.41;104839;1291;25722;-83